Vieques, PR (00765)

7:58 PM AST on July 29, 2014 (GMT -0400)
Roosevelt Roads Ns (TJNR) Elev 39 ft | 18.26 °N, 65.64 °W | Change Station

Current weather conditions updated 5 minutes ago

Clear
Clear
76 °F
Feels Like 76 °F
N
0
Wind Variable Wind from North

Tomorrow is forecast to be Cooler than today. Late night thunderstorms tomorrow night.

Today
High -- | Low -- °F
--% Chance of Precip.
Yesterday
High -- | Low -- °F
Precip. -- in
5:59 AM 6:57 PM
Waxing Crescent, 8% visible
Pressure 30.05 in
Visibility 10.0 miles
Clouds Clear
Dew Point 74 °F
Humidity 94%
Rainfall 1.17 in
Snow Depth Not available.
UV 0 out of 12
Pollen Not available.
Air Quality Not available.
Flu Activity Not available.
METAR TJNR 292353Z AUTO 00000KT 10SM CLR 24/23 A3005 RMK AO2 SLP176 60097 T02440233 10267 20239 53005

More Conditions Fewer Conditions

Pressure 30.05 in
Visibility 10.0 miles
Clouds Clear
Dew Point 74 °F
Humidity 94%
Rainfall 1.17 in
Snow Depth Not available.
UV 0 out of 12
Pollen Not available.
Air Quality Not available.
Flu Activity Not available.
METAR TJNR 292353Z AUTO 00000KT 10SM CLR 24/23 A3005 RMK AO2 SLP176 60097 T02440233 10267 20239 53005

More Conditions Fewer Conditions

10-Day Weather Forecast

Almanac

Astronomy

Jul. 29, 2014 Rise Set
Actual Time 5:59 AM AST 6:57 PM AST
Civil Twilight 5:35 AM AST 7:20 PM AST
Nautical Twilight 5:08 AM AST 7:47 PM AST
Astronomical Twilight 4:40 AM AST 8:16 PM AST
Moon 8:03 AM AST 8:39 PM AST
Length of Visible Light 13h 44m
Length of Day
12h 58m
Tomorrow will be 0m 43s shorter.
Waxing Crescent, 8% of the Moon is Illuminated
Today
Waxing Crescent
Aug 3
First Quarter
Aug 10
Full
Aug 17
Last Quarter
Aug 25
New

Community

WunderPhotos

Upload Photos

1,738,916 photos uploaded!

Nearby

Snow Depth

Station Depth Elevation
No new snow has been reported.

Earthquake Activity

City Distance Mag. Time & Date
No recent earthquake activity has been reported nearby.
Minimum magnitude displayed is 2.5.

Coastal Water Temperatures

Place Temperature
Yabucoa Harbor, PR 87.1 °F
Esperanza, PR 86.0 °F
Charlotte Amalie, VI 87.1 °F

Nearby Weather Stations

Station Location Temp. Heat Index Dew Point Humidity Wind Precip. Elev Updated Type
Manejo de Emergencias, Ceiba, PR 76.0 °F 76 °F 74 °F 94% West  at  1.0 mph 0.00 in / hr 95 ft 7:48 PM AST Normal
Al's Hilltop, Culebra, PR 80.1 °F 85 °F 74 °F 83% East  at  7.0 mph 0.00 in / hr 250 ft 7:56 PM AST Normal
Aquabella, Palmas Del Mar 80.5 °F 85 °F 74 °F 81% SSE  at  0.0 mph 0.00 in / hr 33 ft 7:57 PM AST Rapid Fire

Show More Stations Show Fewer Stations